Time;durP1;ratioP1;P1;durP2;ratioP2;P2;SDS_P1;SDS_P2;PMS_P1;PMS_P2;Temp;Humidity;BMP_temperature;BMP_pressure;BME280_temperature;BME280_humidity;BME280_pressure;Samples;Min_cycle;Max_cycle;Signal;HPM_P1;HPM_P2
2022/06/25 00:01:15;;;;;;;;;;;15.20;99.90;;;;;;4955568;29;19926;-72
2022/06/25 00:03:47;;;;;;;;;;;15.20;99.90;;;;;;4956162;28;19923;-73
2022/06/25 00:06:14;;;;;;;;;;;15.20;99.90;;;;;;4954091;28;19936;-74
2022/06/25 00:08:46;;;;;;;;;;;15.20;99.90;;;;;;4946432;28;19930;-74
2022/06/25 00:14:10;;;;;;;;;;;15.20;99.90;;;;;;4955249;29;19928;-72
2022/06/25 00:16:42;;;;;;;;;;;15.20;99.90;;;;;;4952240;29;20048;-73
2022/06/25 00:19:13;;;;;;;;;;;15.20;99.90;;;;;;4954984;28;20556;-72
2022/06/25 00:21:45;;;;;;;;;;;15.10;99.90;;;;;;4968565;28;20025;-74
2022/06/25 00:24:17;;;;;;;;;;;15.10;99.90;;;;;;4969564;28;19926;-73
2022/06/25 00:26:49;;;;;;;;;;;15.00;99.90;;;;;;4952811;29;19922;-74
2022/06/25 00:29:20;;;;;;;;;;;15.00;99.90;;;;;;4954396;28;19926;-74
2022/06/25 00:31:52;;;;;;;;;;;15.00;99.90;;;;;;4969557;28;19923;-74
2022/06/25 00:34:25;;;;;;;;;;;15.00;99.90;;;;;;4966678;28;20021;-74
2022/06/25 00:36:53;;;;;;;;;;;15.00;99.90;;;;;;4953252;28;19922;-73
2022/06/25 00:39:20;;;;;;;;;;;15.00;99.90;;;;;;4969218;28;20383;-74
2022/06/25 00:41:47;;;;;;;;;;;15.00;99.90;;;;;;4962488;28;19966;-73
2022/06/25 00:44:19;;;;;;;;;;;14.90;99.90;;;;;;4983457;28;20395;-73
2022/06/25 00:46:46;;;;;;;;;;;14.90;99.90;;;;;;4945977;28;19981;-74
2022/06/25 00:49:13;;;;;;;;;;;14.90;99.90;;;;;;4945877;28;19922;-78
2022/06/25 00:51:47;;;;;;;;;;;14.90;99.90;;;;;;4926902;29;19981;-73
2022/06/25 00:54:19;;;;;;;;;;;14.90;99.90;;;;;;4960199;28;20410;-73
2022/06/25 00:56:51;;;;;;;;;;;15.00;99.90;;;;;;4966721;28;20435;-74
2022/06/25 00:59:26;;;;;;;;;;;15.00;99.90;;;;;;4965911;28;19922;-73
2022/06/25 01:01:58;;;;;;;;;;;15.00;99.90;;;;;;4937102;29;19933;-73
2022/06/25 01:04:30;;;;;;;;;;;15.00;99.90;;;;;;4953167;28;19926;-73
2022/06/25 01:07:01;;;;;;;;;;;15.00;99.90;;;;;;4958756;28;19929;-73
2022/06/25 01:09:33;;;;;;;;;;;15.00;99.90;;;;;;4967772;28;19927;-73
2022/06/25 01:12:06;;;;;;;;;;;15.10;99.90;;;;;;4969461;28;20287;-73
2022/06/25 01:14:38;;;;;;;;;;;15.10;99.90;;;;;;4963069;28;20037;-73
2022/06/25 01:17:10;;;;;;;;;;;15.10;99.90;;;;;;4946616;28;20034;-73
2022/06/25 01:19:38;;;;;;;;;;;15.10;99.90;;;;;;4947338;28;19926;-73
2022/06/25 01:22:10;;;;;;;;;;;15.10;99.90;;;;;;4969614;28;19922;-73
2022/06/25 01:24:41;;;;;;;;;;;15.20;99.90;;;;;;4963746;28;19922;-73
2022/06/25 01:27:14;;;;;;;;;;;15.10;99.90;;;;;;4968302;28;19922;-73
2022/06/25 01:29:45;;;;;;;;;;;15.20;99.90;;;;;;4966094;28;20302;-73
2022/06/25 01:32:17;;;;;;;;;;;15.10;99.90;;;;;;4967614;28;19927;-73
2022/06/25 01:34:49;;;;;;;;;;;15.10;99.90;;;;;;4942976;29;19922;-73
2022/06/25 01:37:21;;;;;;;;;;;15.10;99.90;;;;;;4937052;29;20295;-73
2022/06/25 01:39:54;;;;;;;;;;;15.10;99.90;;;;;;4964483;28;19926;-73
2022/06/25 01:45:16;;;;;;;;;;;15.10;99.90;;;;;;4967977;28;19922;-73
2022/06/25 01:47:48;;;;;;;;;;;15.10;99.90;;;;;;4967644;28;19930;-73
2022/06/25 01:50:20;;;;;;;;;;;15.10;99.90;;;;;;4951031;28;20352;-73
2022/06/25 01:52:46;;;;;;;;;;;15.10;99.90;;;;;;4956314;23;19922;-72
2022/06/25 01:55:18;;;;;;;;;;;15.10;99.90;;;;;;4948163;28;19930;-73
2022/06/25 01:57:52;;;;;;;;;;;15.10;99.90;;;;;;4941765;29;20383;-73
2022/06/25 02:00:25;;;;;;;;;;;15.10;99.90;;;;;;4955603;28;19923;-73
2022/06/25 02:03:04;;;;;;;;;;;15.10;99.90;;;;;;4953873;28;20001;-72
2022/06/25 02:08:28;;;;;;;;;;;15.10;99.90;;;;;;4959011;28;19927;-72
2022/06/25 02:11:00;;;;;;;;;;;15.10;99.90;;;;;;4955643;28;19923;-73
2022/06/25 02:13:32;;;;;;;;;;;15.10;99.90;;;;;;4949791;28;20479;-74
2022/06/25 02:16:04;;;;;;;;;;;15.10;99.90;;;;;;4945420;29;19930;-73
2022/06/25 02:18:35;;;;;;;;;;;15.10;99.90;;;;;;4945759;29;19930;-73
2022/06/25 02:21:06;;;;;;;;;;;15.10;99.90;;;;;;4941896;29;19927;-73
2022/06/25 02:23:38;;;;;;;;;;;15.10;99.90;;;;;;4945975;28;19932;-74
2022/06/25 02:26:09;;;;;;;;;;;15.10;99.90;;;;;;4947896;28;19937;-72
2022/06/25 02:28:36;;;;;;;;;;;15.10;99.90;;;;;;4952272;28;19933;-73
2022/06/25 02:31:08;;;;;;;;;;;15.10;99.90;;;;;;4949722;28;19926;-73
2022/06/25 02:33:39;;;;;;;;;;;15.00;99.90;;;;;;4949858;28;19923;-73
2022/06/25 02:36:11;;;;;;;;;;;15.00;99.90;;;;;;4948836;28;19930;-74
2022/06/25 02:38:43;;;;;;;;;;;15.00;99.90;;;;;;4937330;29;19929;-73
2022/06/25 02:41:15;;;;;;;;;;;15.00;99.90;;;;;;4949040;29;19933;-73
2022/06/25 02:43:44;;;;;;;;;;;15.00;99.90;;;;;;4949277;28;19969;-73
2022/06/25 02:46:29;;;;;;;;;;;15.00;99.90;;;;;;4941828;28;19927;-73
2022/06/25 02:49:01;;;;;;;;;;;15.00;99.90;;;;;;4954209;28;19926;-72
2022/06/25 02:51:33;;;;;;;;;;;14.90;99.90;;;;;;4951419;28;19926;-73
2022/06/25 02:53:59;;;;;;;;;;;14.90;99.90;;;;;;4950186;28;20029;-73
2022/06/25 02:59:23;;;;;;;;;;;14.80;99.90;;;;;;4954312;28;19990;-73
2022/06/25 03:01:54;;;;;;;;;;;14.80;99.90;;;;;;4934243;29;19930;-73
2022/06/25 03:04:26;;;;;;;;;;;14.70;99.90;;;;;;4945731;29;19938;-73
2022/06/25 03:06:54;;;;;;;;;;;14.70;99.90;;;;;;4936162;29;20009;-73
2022/06/25 03:09:21;;;;;;;;;;;14.70;99.90;;;;;;4953500;28;19928;-74
2022/06/25 03:11:47;;;;;;;;;;;14.70;99.90;;;;;;4946662;29;19933;-73
2022/06/25 03:14:19;;;;;;;;;;;14.70;99.90;;;;;;4947494;29;19965;-73
2022/06/25 03:16:51;;;;;;;;;;;14.60;99.90;;;;;;4954324;29;19929;-72
2022/06/25 03:19:18;;;;;;;;;;;14.60;99.90;;;;;;4949208;29;19992;-73
2022/06/25 03:22:09;;;;;;;;;;;14.60;99.90;;;;;;4942297;28;20410;-73
2022/06/25 03:24:41;;;;;;;;;;;14.60;99.90;;;;;;4949145;29;19923;-73
2022/06/25 03:27:12;;;;;;;;;;;14.60;99.90;;;;;;4953071;29;20395;-73
2022/06/25 03:29:48;;;;;;;;;;;14.60;99.90;;;;;;4955763;28;19969;-73
2022/06/25 03:32:19;;;;;;;;;;;14.50;99.90;;;;;;4954810;28;19922;-73
2022/06/25 03:35:11;;;;;;;;;;;14.50;99.90;;;;;;4949123;29;19926;-73
2022/06/25 03:37:57;;;;;;;;;;;14.50;99.90;;;;;;4952595;28;20310;-73
2022/06/25 03:40:23;;;;;;;;;;;14.50;99.90;;;;;;4941501;29;19922;-73
2022/06/25 03:42:55;;;;;;;;;;;14.50;99.90;;;;;;4953756;28;19922;-73
2022/06/25 03:45:23;;;;;;;;;;;14.50;99.90;;;;;;4947962;29;19947;-73
2022/06/25 03:47:55;;;;;;;;;;;14.50;99.90;;;;;;4957716;28;19962;-73
2022/06/25 03:50:33;;;;;;;;;;;14.50;99.90;;;;;;4939184;29;20417;-73
2022/06/25 03:53:05;;;;;;;;;;;14.50;99.90;;;;;;4944356;29;20681;-73
2022/06/25 03:55:37;;;;;;;;;;;14.50;99.90;;;;;;4947988;29;20288;-73
2022/06/25 03:58:09;;;;;;;;;;;14.50;99.90;;;;;;4943449;28;19922;-73
2022/06/25 04:00:40;;;;;;;;;;;14.50;99.90;;;;;;4947856;29;19922;-74
2022/06/25 04:03:12;;;;;;;;;;;14.50;99.90;;;;;;4953609;28;19926;-73
2022/06/25 04:06:03;;;;;;;;;;;14.50;99.90;;;;;;4954385;28;19926;-74
2022/06/25 04:08:48;;;;;;;;;;;14.50;99.90;;;;;;4965867;28;19922;-73
2022/06/25 04:11:16;;;;;;;;;;;14.50;99.90;;;;;;4952630;29;19933;-73
2022/06/25 04:13:53;;;;;;;;;;;14.50;99.90;;;;;;4953371;28;19926;-73
2022/06/25 04:16:25;;;;;;;;;;;14.50;99.90;;;;;;4946782;29;19973;-73
2022/06/25 04:19:06;;;;;;;;;;;14.50;99.90;;;;;;4946051;28;19922;-74
2022/06/25 04:21:39;;;;;;;;;;;14.60;99.90;;;;;;4952058;29;19926;-73
2022/06/25 04:24:13;;;;;;;;;;;14.60;99.90;;;;;;4944996;29;20532;-74
2022/06/25 04:26:44;;;;;;;;;;;14.70;99.90;;;;;;4953218;28;19961;-73
2022/06/25 04:29:16;;;;;;;;;;;14.80;99.90;;;;;;4939226;28;19923;-73
2022/06/25 04:31:58;;;;;;;;;;;14.80;99.90;;;;;;4954499;28;19933;-73
2022/06/25 04:35:01;;;;;;;;;;;14.90;99.90;;;;;;4949729;28;19922;-73
2022/06/25 04:37:35;;;;;;;;;;;14.90;99.90;;;;;;4930575;29;19946;-73
2022/06/25 04:40:08;;;;;;;;;;;15.00;99.90;;;;;;4948602;29;19922;-74
2022/06/25 04:42:43;;;;;;;;;;;15.00;99.90;;;;;;4947724;28;19922;-73
2022/06/25 04:45:09;;;;;;;;;;;14.90;99.90;;;;;;4942015;29;20027;-73
2022/06/25 04:47:45;;;;;;;;;;;14.90;99.90;;;;;;4963885;28;19923;-74
2022/06/25 04:50:32;;;;;;;;;;;14.90;99.90;;;;;;4967925;28;19930;-73
2022/06/25 04:53:04;;;;;;;;;;;14.90;99.90;;;;;;4951710;28;19958;-73
2022/06/25 04:55:35;;;;;;;;;;;15.00;99.90;;;;;;4952086;29;19926;-73
2022/06/25 04:58:07;;;;;;;;;;;15.00;99.90;;;;;;4930170;29;20464;-73
2022/06/25 05:00:40;;;;;;;;;;;15.10;99.90;;;;;;4952629;29;19929;-73
2022/06/25 05:03:12;;;;;;;;;;;15.10;99.90;;;;;;4928035;29;20318;-73
2022/06/25 05:06:06;;;;;;;;;;;15.20;99.90;;;;;;4952353;28;19929;-73
2022/06/25 05:08:33;;;;;;;;;;;15.20;99.90;;;;;;4946871;29;19976;-73
2022/06/25 05:11:05;;;;;;;;;;;15.20;99.90;;;;;;4952449;29;19923;-73
2022/06/25 05:13:37;;;;;;;;;;;15.20;99.90;;;;;;4950977;28;20368;-73
2022/06/25 05:16:04;;;;;;;;;;;15.30;99.90;;;;;;4946434;29;19929;-74
2022/06/25 05:18:35;;;;;;;;;;;15.30;99.90;;;;;;4951010;29;19926;-74
2022/06/25 05:21:07;;;;;;;;;;;15.30;99.90;;;;;;4951599;29;20021;-73
2022/06/25 05:23:39;;;;;;;;;;;15.40;99.90;;;;;;4950884;28;19961;-73
2022/06/25 05:26:11;;;;;;;;;;;15.40;99.90;;;;;;4940098;29;20433;-73
2022/06/25 05:28:43;;;;;;;;;;;15.50;99.90;;;;;;4952312;28;19993;-73
2022/06/25 05:31:17;;;;;;;;;;;15.50;99.90;;;;;;4951393;28;19922;-73
2022/06/25 05:33:49;;;;;;;;;;;15.60;99.90;;;;;;4951750;28;20832;-73
2022/06/25 05:36:21;;;;;;;;;;;15.70;99.90;;;;;;4952863;29;19926;-73
2022/06/25 05:38:52;;;;;;;;;;;15.70;99.90;;;;;;4951806;28;19933;-73
2022/06/25 05:41:24;;;;;;;;;;;15.70;99.90;;;;;;4934622;29;19930;-73
2022/06/25 05:43:56;;;;;;;;;;;15.80;99.90;;;;;;4946949;29;19923;-73
2022/06/25 05:46:28;;;;;;;;;;;15.90;99.90;;;;;;4946052;28;19929;-73
2022/06/25 05:48:59;;;;;;;;;;;15.90;99.90;;;;;;4955102;28;19922;-73
2022/06/25 05:51:31;;;;;;;;;;;15.90;99.90;;;;;;4953358;28;19923;-73
2022/06/25 05:54:03;;;;;;;;;;;16.00;99.90;;;;;;4947749;28;19933;-74
2022/06/25 05:56:34;;;;;;;;;;;16.00;99.90;;;;;;4929424;29;19933;-74
2022/06/25 05:59:06;;;;;;;;;;;16.10;99.90;;;;;;4946642;29;19937;-73
2022/06/25 06:01:38;;;;;;;;;;;16.20;99.90;;;;;;4947744;28;20006;-72
2022/06/25 06:04:09;;;;;;;;;;;16.20;99.90;;;;;;4949090;28;19937;-73
2022/06/25 06:06:41;;;;;;;;;;;16.30;99.90;;;;;;4946327;28;19934;-73
2022/06/25 06:09:07;;;;;;;;;;;16.30;99.90;;;;;;4947261;28;19930;-72
2022/06/25 06:11:39;;;;;;;;;;;16.30;99.90;;;;;;4947611;29;19934;-73
2022/06/25 06:14:06;;;;;;;;;;;16.40;99.90;;;;;;4944999;28;19927;-73
2022/06/25 06:16:37;;;;;;;;;;;16.30;99.90;;;;;;4950280;28;19954;-73
2022/06/25 06:19:09;;;;;;;;;;;16.40;99.90;;;;;;4941354;29;19932;-72
2022/06/25 06:21:41;;;;;;;;;;;16.40;99.90;;;;;;4946950;29;19927;-73
2022/06/25 06:24:07;;;;;;;;;;;16.50;99.90;;;;;;4940982;29;19930;-72
2022/06/25 06:26:39;;;;;;;;;;;16.50;99.90;;;;;;4949299;28;19933;-73
2022/06/25 06:29:05;;;;;;;;;;;16.60;99.90;;;;;;4949496;28;20361;-72
2022/06/25 06:31:37;;;;;;;;;;;16.70;99.90;;;;;;4951231;29;19926;-73
2022/06/25 06:34:09;;;;;;;;;;;16.70;99.90;;;;;;4946514;28;19949;-73
2022/06/25 06:36:40;;;;;;;;;;;16.80;99.90;;;;;;4941142;29;19933;-73
2022/06/25 06:39:07;;;;;;;;;;;16.80;99.90;;;;;;4946142;29;19922;-73
2022/06/25 06:41:39;;;;;;;;;;;16.90;99.90;;;;;;4951522;29;19933;-73
2022/06/25 06:44:10;;;;;;;;;;;17.00;99.90;;;;;;4946296;29;19922;-72
2022/06/25 06:46:37;;;;;;;;;;;17.10;99.90;;;;;;4944427;28;20376;-73
2022/06/25 06:49:03;;;;;;;;;;;17.20;99.90;;;;;;4948117;29;19929;-73
2022/06/25 06:51:30;;;;;;;;;;;17.30;99.90;;;;;;4956747;28;20454;-73
2022/06/25 06:54:02;;;;;;;;;;;17.40;99.90;;;;;;4943209;28;19942;-73
2022/06/25 06:56:33;;;;;;;;;;;17.40;99.90;;;;;;4945212;29;19930;-73
2022/06/25 06:59:00;;;;;;;;;;;17.50;99.90;;;;;;4940226;29;19931;-73
2022/06/25 07:01:27;;;;;;;;;;;17.60;99.90;;;;;;4949004;28;19923;-73
2022/06/25 07:03:58;;;;;;;;;;;17.60;99.90;;;;;;4941319;29;19923;-73
2022/06/25 07:06:30;;;;;;;;;;;17.70;99.90;;;;;;4942188;28;19930;-73
2022/06/25 07:09:03;;;;;;;;;;;17.80;99.90;;;;;;4936628;29;19923;-73
2022/06/25 07:11:34;;;;;;;;;;;17.90;99.90;;;;;;4945812;29;19929;-72
2022/06/25 07:14:06;;;;;;;;;;;18.00;99.90;;;;;;4948601;28;19970;-72
2022/06/25 07:16:38;;;;;;;;;;;18.00;99.90;;;;;;4945896;29;19934;-73
2022/06/25 07:19:12;;;;;;;;;;;18.10;99.90;;;;;;4950849;29;20405;-73
2022/06/25 07:21:44;;;;;;;;;;;18.20;99.90;;;;;;4942374;29;19978;-73
2022/06/25 07:24:15;;;;;;;;;;;18.20;99.90;;;;;;4948529;28;19923;-73
2022/06/25 07:26:42;;;;;;;;;;;18.30;99.90;;;;;;4948846;29;20263;-73
2022/06/25 07:29:14;;;;;;;;;;;18.40;99.90;;;;;;4944453;29;19922;-72
2022/06/25 07:31:45;;;;;;;;;;;18.50;99.90;;;;;;4949699;28;19927;-72
2022/06/25 07:34:17;;;;;;;;;;;18.50;99.90;;;;;;4950006;28;20306;-73
2022/06/25 07:36:44;;;;;;;;;;;18.60;99.90;;;;;;4949653;28;19923;-72
2022/06/25 07:39:16;;;;;;;;;;;18.60;99.90;;;;;;4945664;28;20041;-73
2022/06/25 07:41:44;;;;;;;;;;;18.60;99.90;;;;;;4942882;29;19927;-73
2022/06/25 07:44:15;;;;;;;;;;;18.70;99.90;;;;;;4942739;28;19922;-73
2022/06/25 07:46:47;;;;;;;;;;;18.70;99.90;;;;;;4950301;29;20382;-72
2022/06/25 07:49:19;;;;;;;;;;;18.80;99.90;;;;;;4952110;28;19927;-72
2022/06/25 07:51:59;;;;;;;;;;;18.80;99.90;;;;;;4950034;28;19926;-71
2022/06/25 07:54:31;;;;;;;;;;;18.90;99.90;;;;;;4938684;28;19923;-73
2022/06/25 07:57:03;;;;;;;;;;;18.90;99.90;;;;;;4954118;28;20382;-73
2022/06/25 07:59:34;;;;;;;;;;;19.00;99.90;;;;;;4952640;28;19922;-72
2022/06/25 08:02:06;;;;;;;;;;;19.20;99.90;;;;;;4941894;28;19926;-72
2022/06/25 08:04:38;;;;;;;;;;;19.20;99.90;;;;;;4951273;29;19923;-71
2022/06/25 08:07:09;;;;;;;;;;;19.30;99.90;;;;;;4945944;28;19926;-72
2022/06/25 08:09:41;;;;;;;;;;;19.40;99.90;;;;;;4945504;28;19923;-72
2022/06/25 08:12:12;;;;;;;;;;;19.60;99.90;;;;;;4945848;28;20371;-71
2022/06/25 08:14:44;;;;;;;;;;;19.70;99.90;;;;;;4948211;29;20627;-72
2022/06/25 08:17:16;;;;;;;;;;;19.80;99.90;;;;;;4952128;28;20045;-72
2022/06/25 08:19:47;;;;;;;;;;;19.80;99.90;;;;;;4947614;29;19927;-72
2022/06/25 08:22:19;;;;;;;;;;;19.70;99.90;;;;;;4945799;29;19926;-69
2022/06/25 08:24:50;;;;;;;;;;;19.70;99.90;;;;;;4951613;28;19945;-72
2022/06/25 08:27:22;;;;;;;;;;;19.60;99.90;;;;;;4964932;23;20357;-71
2022/06/25 08:29:54;;;;;;;;;;;19.50;99.90;;;;;;4938762;29;19922;-71
2022/06/25 08:32:26;;;;;;;;;;;19.50;99.90;;;;;;4947506;29;19922;-71
2022/06/25 08:34:52;;;;;;;;;;;19.60;99.90;;;;;;4949237;29;19922;-71
2022/06/25 08:37:24;;;;;;;;;;;19.80;99.90;;;;;;4936000;28;19923;-71
2022/06/25 08:39:50;;;;;;;;;;;19.90;99.90;;;;;;4929481;29;19942;-72
2022/06/25 08:42:22;;;;;;;;;;;20.00;99.90;;;;;;4932183;29;19927;-71
2022/06/25 08:44:54;;;;;;;;;;;20.20;99.90;;;;;;4931536;29;20303;-71
2022/06/25 08:47:26;;;;;;;;;;;20.30;99.90;;;;;;4922582;29;19923;-71
2022/06/25 08:49:58;;;;;;;;;;;20.50;99.90;;;;;;4921644;29;19923;-71
2022/06/25 08:52:30;;;;;;;;;;;20.70;99.90;;;;;;4930897;29;19938;-71
2022/06/25 08:55:02;;;;;;;;;;;20.60;99.90;;;;;;4918501;29;20079;-71
2022/06/25 08:57:33;;;;;;;;;;;20.60;99.90;;;;;;4927705;29;19930;-71
2022/06/25 09:00:05;;;;;;;;;;;20.70;99.90;;;;;;4925328;29;19923;-71
2022/06/25 09:02:39;;;;;;;;;;;20.90;99.90;;;;;;4926065;29;19929;-71
2022/06/25 09:05:10;;;;;;;;;;;21.00;99.90;;;;;;4922008;29;19923;-72
2022/06/25 09:07:53;;;;;;;;;;;20.80;99.90;;;;;;4925289;29;19929;-71
2022/06/25 09:10:25;;;;;;;;;;;20.70;99.90;;;;;;4932178;29;19969;-71
2022/06/25 09:12:58;;;;;;;;;;;20.60;99.90;;;;;;4924960;29;20399;-71
2022/06/25 09:15:34;;;;;;;;;;;20.50;99.90;;;;;;4928053;29;19923;-71
2022/06/25 09:18:07;;;;;;;;;;;20.80;99.90;;;;;;4933693;29;20398;-71
2022/06/25 09:20:57;;;;;;;;;;;21.00;99.90;;;;;;4941887;29;19938;-72
2022/06/25 09:23:29;;;;;;;;;;;21.30;99.90;;;;;;4935876;28;19923;-71
2022/06/25 09:26:00;;;;;;;;;;;21.50;99.90;;;;;;4925622;29;19990;-71
2022/06/25 09:28:31;;;;;;;;;;;21.50;99.90;;;;;;4928090;29;19923;-71
2022/06/25 09:31:03;;;;;;;;;;;21.50;99.90;;;;;;4927309;29;19937;-71
2022/06/25 09:33:36;;;;;;;;;;;21.30;99.90;;;;;;4925442;29;19926;-72
2022/06/25 09:36:09;;;;;;;;;;;21.20;99.90;;;;;;4928973;29;19934;-71
2022/06/25 09:38:49;;;;;;;;;;;21.10;99.90;;;;;;4923718;29;19927;-71
2022/06/25 09:41:22;;;;;;;;;;;21.10;99.90;;;;;;4924298;29;19938;-71
2022/06/25 09:43:54;;;;;;;;;;;21.10;99.90;;;;;;4931852;29;19929;-71
2022/06/25 09:46:26;;;;;;;;;;;21.40;99.90;;;;;;4940399;29;19935;-71
2022/06/25 09:48:57;;;;;;;;;;;21.70;99.90;;;;;;4926966;29;19927;-71
2022/06/25 09:51:26;;;;;;;;;;;22.00;99.90;;;;;;4927615;29;19929;-71
2022/06/25 09:53:59;;;;;;;;;;;22.20;99.90;;;;;;4929950;29;19923;-71
2022/06/25 09:56:32;;;;;;;;;;;22.50;99.90;;;;;;4932123;29;19929;-71
2022/06/25 09:59:04;;;;;;;;;;;22.70;99.90;;;;;;4925981;29;20299;-71
2022/06/25 10:01:35;;;;;;;;;;;22.60;99.90;;;;;;4931674;29;20369;-72
2022/06/25 10:04:08;;;;;;;;;;;22.40;99.90;;;;;;4926493;29;19922;-72
2022/06/25 10:06:40;;;;;;;;;;;22.20;99.90;;;;;;4928328;29;19933;-71
2022/06/25 10:09:12;;;;;;;;;;;22.10;99.90;;;;;;4927437;29;19926;-71
2022/06/25 10:11:44;;;;;;;;;;;22.00;99.90;;;;;;4945081;29;19926;-71
2022/06/25 10:14:11;;;;;;;;;;;21.80;99.90;;;;;;4930739;29;19935;-71
2022/06/25 10:16:43;;;;;;;;;;;21.70;99.90;;;;;;4928055;29;19926;-71
2022/06/25 10:19:16;;;;;;;;;;;21.80;99.90;;;;;;4942621;29;19927;-71
2022/06/25 10:21:48;;;;;;;;;;;22.00;99.90;;;;;;4930347;29;20399;-71
2022/06/25 10:24:20;;;;;;;;;;;22.20;99.90;;;;;;4923542;29;19931;-71
2022/06/25 10:26:47;;;;;;;;;;;22.30;99.90;;;;;;4940541;28;20022;-71
2022/06/25 10:29:29;;;;;;;;;;;22.40;99.90;;;;;;4922206;29;19930;-71
2022/06/25 10:32:17;;;;;;;;;;;22.50;99.90;;;;;;4930382;29;19926;-71
2022/06/25 10:34:58;;;;;;;;;;;22.60;99.90;;;;;;4924242;29;19923;-72
2022/06/25 10:37:50;;;;;;;;;;;22.70;99.90;;;;;;4931528;29;19923;-71
2022/06/25 10:40:17;;;;;;;;;;;22.70;99.90;;;;;;4922839;29;19933;-71
2022/06/25 10:43:00;;;;;;;;;;;22.80;99.90;;;;;;4930452;29;19929;-71
2022/06/25 10:45:32;;;;;;;;;;;23.00;99.90;;;;;;4924322;29;19927;-71
2022/06/25 10:48:04;;;;;;;;;;;23.20;99.90;;;;;;4931208;29;19930;-71
2022/06/25 10:50:36;;;;;;;;;;;23.40;99.90;;;;;;4928046;29;19923;-71
2022/06/25 10:53:08;;;;;;;;;;;23.60;99.90;;;;;;4926737;29;19926;-71
2022/06/25 10:55:48;;;;;;;;;;;23.60;99.90;;;;;;4922722;29;19934;-71
2022/06/25 10:58:21;;;;;;;;;;;23.70;99.90;;;;;;4925826;29;19922;-71
2022/06/25 11:00:48;;;;;;;;;;;23.50;99.90;;;;;;4931543;29;19930;-71
2022/06/25 11:03:29;;;;;;;;;;;23.50;99.90;;;;;;4927490;29;19923;-71
2022/06/25 11:06:16;;;;;;;;;;;23.60;99.90;;;;;;4922501;29;19933;-71
2022/06/25 11:08:49;;;;;;;;;;;23.80;99.90;;;;;;4924579;29;19935;-71
2022/06/25 11:11:29;;;;;;;;;;;23.90;99.90;;;;;;4930705;29;20041;-71
2022/06/25 11:14:01;;;;;;;;;;;24.00;99.90;;;;;;4936153;29;19933;-71
2022/06/25 11:16:33;;;;;;;;;;;24.10;99.90;;;;;;4925662;29;19926;-71
2022/06/25 11:19:04;;;;;;;;;;;24.30;99.90;;;;;;4925427;29;19929;-71
2022/06/25 11:21:37;;;;;;;;;;;24.10;99.90;;;;;;4922439;29;19922;-71
2022/06/25 11:24:18;;;;;;;;;;;24.00;99.90;;;;;;4929607;29;19954;-71
2022/06/25 11:30:00;;;;;;;;;;;23.90;99.90;;;;;;4948278;28;19923;-71
2022/06/25 11:32:31;;;;;;;;;;;24.10;99.90;;;;;;4931806;29;19926;-71
2022/06/25 11:35:03;;;;;;;;;;;24.30;99.90;;;;;;4920871;29;19941;-71
2022/06/25 11:37:35;;;;;;;;;;;24.50;99.90;;;;;;4925358;29;19933;-71
2022/06/25 11:40:16;;;;;;;;;;;24.60;99.90;;;;;;4929749;29;19970;-71
2022/06/25 11:42:48;;;;;;;;;;;24.70;99.90;;;;;;4925873;29;19931;-71
2022/06/25 11:45:19;;;;;;;;;;;24.70;99.90;;;;;;4924119;29;20306;-71
2022/06/25 11:47:51;;;;;;;;;;;24.60;99.90;;;;;;4929867;29;19931;-71
2022/06/25 11:50:22;;;;;;;;;;;24.70;99.90;;;;;;4927779;29;19930;-71
2022/06/25 11:52:54;;;;;;;;;;;24.70;99.90;;;;;;4928135;29;19958;-73
2022/06/25 11:55:26;;;;;;;;;;;24.50;99.90;;;;;;4930677;29;20021;-73
2022/06/25 11:57:58;;;;;;;;;;;24.50;99.90;;;;;;4934829;29;20446;-72
2022/06/25 12:00:29;;;;;;;;;;;24.50;99.90;;;;;;4933927;29;19930;-73
2022/06/25 12:03:02;;;;;;;;;;;24.80;99.90;;;;;;4928540;29;20283;-72
2022/06/25 12:05:29;;;;;;;;;;;24.80;99.90;;;;;;4932604;29;19923;-73
2022/06/25 12:07:57;;;;;;;;;;;24.60;99.90;;;;;;4933505;29;19927;-72
2022/06/25 12:10:29;;;;;;;;;;;24.50;99.90;;;;;;4930565;29;19929;-73
2022/06/25 12:13:00;;;;;;;;;;;24.30;99.90;;;;;;4932540;29;19927;-73
2022/06/25 12:15:32;;;;;;;;;;;24.30;99.90;;;;;;4939417;29;19933;-72
2022/06/25 12:18:06;;;;;;;;;;;24.60;99.90;;;;;;4931353;29;19929;-73
2022/06/25 12:20:54;;;;;;;;;;;24.80;99.90;;;;;;4929779;29;19923;-72
2022/06/25 12:23:26;;;;;;;;;;;25.10;99.90;;;;;;4922492;29;20409;-73
2022/06/25 12:25:58;;;;;;;;;;;25.50;99.90;;;;;;4928137;29;19954;-72
2022/06/25 12:28:34;;;;;;;;;;;25.70;99.90;;;;;;4923257;29;20019;-72
2022/06/25 12:31:15;;;;;;;;;;;25.90;99.90;;;;;;4928885;29;19945;-73
2022/06/25 12:33:50;;;;;;;;;;;26.10;99.90;;;;;;4931193;29;19927;-73
2022/06/25 12:36:23;;;;;;;;;;;26.30;99.90;;;;;;4930985;29;19927;-73
2022/06/25 12:38:55;;;;;;;;;;;26.60;99.90;;;;;;4927675;29;19938;-73
2022/06/25 12:41:48;;;;;;;;;;;26.70;99.90;;;;;;4932838;29;19929;-73
2022/06/25 12:44:17;;;;;;;;;;;26.80;98.70;;;;;;4928866;29;19926;-72
2022/06/25 12:47:02;;;;;;;;;;;26.70;98.00;;;;;;4931061;29;19937;-73
2022/06/25 12:49:40;;;;;;;;;;;26.50;99.50;;;;;;4929352;29;20343;-73
2022/06/25 12:52:12;;;;;;;;;;;26.40;98.90;;;;;;4930090;29;19930;-73
2022/06/25 12:54:45;;;;;;;;;;;26.20;99.90;;;;;;4943537;29;20010;-73
2022/06/25 12:57:21;;;;;;;;;;;26.00;99.20;;;;;;4929774;29;20475;-73
2022/06/25 12:59:53;;;;;;;;;;;26.10;98.90;;;;;;4943659;29;19934;-72
2022/06/25 13:02:25;;;;;;;;;;;26.30;99.10;;;;;;4929658;29;19940;-73
2022/06/25 13:04:57;;;;;;;;;;;26.50;97.40;;;;;;4930923;29;19926;-73
2022/06/25 13:07:28;;;;;;;;;;;26.70;99.50;;;;;;4922701;29;19933;-73
2022/06/25 13:10:00;;;;;;;;;;;26.70;98.80;;;;;;4929011;29;20379;-73
2022/06/25 13:12:32;;;;;;;;;;;26.90;99.40;;;;;;4929888;29;19929;-72
2022/06/25 13:15:04;;;;;;;;;;;27.20;99.90;;;;;;4920695;29;20021;-73
2022/06/25 13:17:36;;;;;;;;;;;27.40;99.40;;;;;;4929237;29;19933;-73
2022/06/25 13:20:08;;;;;;;;;;;27.60;97.20;;;;;;4928899;29;20398;-73
2022/06/25 13:22:35;;;;;;;;;;;27.50;96.70;;;;;;4926926;29;19930;-73
2022/06/25 13:25:09;;;;;;;;;;;27.20;95.10;;;;;;4932445;29;19930;-73
2022/06/25 13:27:41;;;;;;;;;;;26.80;94.90;;;;;;4929958;29;19923;-73
2022/06/25 13:30:13;;;;;;;;;;;26.50;95.30;;;;;;4932191;29;19923;-73
2022/06/25 13:32:39;;;;;;;;;;;26.40;95.90;;;;;;4929134;29;20410;-73
2022/06/25 13:35:06;;;;;;;;;;;26.50;95.80;;;;;;4928416;29;19930;-73
2022/06/25 13:37:39;;;;;;;;;;;26.70;96.20;;;;;;4929180;29;19922;-73
2022/06/25 13:40:11;;;;;;;;;;;27.00;94.60;;;;;;4928669;29;19922;-73
2022/06/25 13:42:42;;;;;;;;;;;27.20;93.70;;;;;;4916729;29;19933;-73
2022/06/25 13:45:14;;;;;;;;;;;27.40;93.70;;;;;;4944964;29;19929;-73
2022/06/25 13:47:41;;;;;;;;;;;27.50;92.30;;;;;;4927535;29;19923;-73
2022/06/25 13:50:08;;;;;;;;;;;27.70;92.20;;;;;;4940625;29;19930;-73
2022/06/25 13:52:39;;;;;;;;;;;27.90;92.60;;;;;;4942162;28;20275;-73
2022/06/25 13:55:06;;;;;;;;;;;27.90;92.30;;;;;;4927488;29;19923;-72
2022/06/25 13:57:38;;;;;;;;;;;27.90;91.70;;;;;;4929264;29;20691;-73
2022/06/25 14:00:10;;;;;;;;;;;28.00;92.00;;;;;;4931767;29;19926;-73
2022/06/25 14:02:42;;;;;;;;;;;28.20;92.30;;;;;;4924027;29;20140;-73
2022/06/25 14:05:14;;;;;;;;;;;28.30;92.80;;;;;;4927611;29;19923;-73
2022/06/25 14:07:45;;;;;;;;;;;28.30;93.10;;;;;;4921849;29;19934;-73
2022/06/25 14:10:17;;;;;;;;;;;28.50;93.10;;;;;;4927713;29;19923;-73
2022/06/25 14:12:43;;;;;;;;;;;28.60;92.50;;;;;;4927134;29;19929;-74
2022/06/25 14:15:15;;;;;;;;;;;28.80;91.60;;;;;;4931159;29;19923;-73
2022/06/25 14:17:47;;;;;;;;;;;29.00;90.60;;;;;;4927284;29;20442;-73
2022/06/25 14:20:18;;;;;;;;;;;29.00;88.30;;;;;;4927688;29;19923;-73
2022/06/25 14:22:50;;;;;;;;;;;28.90;88.50;;;;;;4929743;29;20399;-73
2022/06/25 14:25:23;;;;;;;;;;;29.00;89.00;;;;;;4931710;29;19931;-73
2022/06/25 14:27:56;;;;;;;;;;;29.00;86.60;;;;;;4924158;29;20014;-73
2022/06/25 14:30:23;;;;;;;;;;;29.10;89.40;;;;;;4953428;23;19916;-87
2022/06/25 14:32:50;;;;;;;;;;;29.00;86.10;;;;;;4954706;29;19922;-86
2022/06/25 14:35:17;;;;;;;;;;;29.00;85.60;;;;;;4943134;29;19923;-86
2022/06/25 14:43:15;;;;;;;;;;;29.90;81.20;;;;;;4964721;28;19923;-86
2022/06/25 14:45:41;;;;;;;;;;;30.10;80.10;;;;;;4954898;28;20013;-86
2022/06/25 14:48:08;;;;;;;;;;;30.40;82.20;;;;;;4942039;29;19928;-86
2022/06/25 14:50:35;;;;;;;;;;;30.50;79.80;;;;;;4952897;28;20523;-86
2022/06/25 14:53:02;;;;;;;;;;;30.80;79.60;;;;;;4959804;29;19929;-85
2022/06/25 14:55:29;;;;;;;;;;;31.00;78.30;;;;;;4940699;29;19929;-87
2022/06/25 14:57:56;;;;;;;;;;;31.10;75.10;;;;;;4955864;28;19922;-85
2022/06/25 15:00:23;;;;;;;;;;;31.40;73.10;;;;;;4956147;28;19937;-86
2022/06/25 15:02:49;;;;;;;;;;;31.50;70.40;;;;;;4938364;28;19997;-85
2022/06/25 15:05:16;;;;;;;;;;;31.90;71.30;;;;;;4967258;28;19929;-86